Palmer, NE (68864)

11:42 AM CDT die 24o July, anno 2017 (GMT -0500)
Central Nebraska Regional | | Change Station

Elev 1847 ft 40.97 °N, 98.31 °W | Updated 49 minutes ago

Serena
Serena
79 °F
Feels Like 79 °F
N
12
Ventus Variabilis Ventus from Magis Auster quam Eurus

Hodie
High -- | Low -- °F
--% Chance of Precip.
Yesterday
High -- | Low -- °F
Precip. -- in
Pressio 29.99 in
Visibilitas 10.0 milia passuum
Clouds Serena
Frigus in quo Ros apparet 66 °F
Umor 64%
Rainfall 0.00 in
Snow Depth Not available.
6:21 AM 8:57 PM
New, 2% visible
METAR KGRI 241553Z 15010KT 10SM CLR 26/19 A3002 RMK AO2 SLP156 T02610189
Pressio 29.99 in
Visibilitas 10.0 milia passuum
Clouds Serena
Frigus in quo Ros apparet 66 °F
Umor 64%
Rainfall 0.00 in
Snow Depth Not available.
6:21 AM 8:57 PM
New, 2% visible
METAR KGRI 241553Z 15010KT 10SM CLR 26/19 A3002 RMK AO2 SLP156 T02610189

Get Severe Weather Alerts

Thanks for signing up!

Be on the lookout for a verification email in your inbox.

You'll start receiving the daily forecast at 6 AM.

×

10-Day Weather Forecast

Almanac

Astronomy

Jul. 24, 2017 Rise Set
Actual Time
Civil Twilight
Nautical Twilight
Astronomical Twilight
Moon
Length Of Visible Light
Length of Day
Tomorrow will be .
, % of the Moon is Illuminated

Today's Extremes

State Highs State Lows

Community

WunderPhotos

Category 6

Welcome to Category 6. This is the collective home for Weather Underground's featured writeups by Dr. Jeff Masters (right), Bob Henson (left), Chris Burt, and other regular contributors.

Nearby

Air Quality

  Air Quality AQ Index Pollutant
Not available.

Snow Depth

Station Depth Elevation

Earthquake Activity

City Distance Mag. Time & Date
Minimum magnitude displayed is 2.5.

Coastal Water Temperatures

Locus Calor

Stations

Nearby Weather Stations

Station Location Temp Frigus Venti Frigus in quo Ros apparet Umor Ventus Precip. Elev Renovata Type
                   

Watches & Warnings

There are currently no watches in effect.